Time;durP1;ratioP1;P1;durP2;ratioP2;P2;SDS_P1;SDS_P2;PMS_P1;PMS_P2;Temp;Humidity;BMP_temperature;BMP_pressure;BME280_temperature;BME280_humidity;BME280_pressure;Samples;Min_cycle;Max_cycle;Signal;HPM_P1;HPM_P2
2021/11/18 00:00:50;;;;;;;14.98;8.73;;;8.40;99.90;;;;;;5075531;28;20383;-53
2021/11/18 00:03:18;;;;;;;13.27;8.10;;;8.50;99.90;;;;;;5068071;28;20467;-53
2021/11/18 00:05:44;;;;;;;14.18;8.95;;;8.40;99.90;;;;;;5068552;28;20387;-53
2021/11/18 00:08:10;;;;;;;14.50;8.90;;;8.30;99.90;;;;;;5068014;28;20388;-54
2021/11/18 00:10:48;;;;;;;16.73;9.15;;;8.40;99.90;;;;;;5050651;28;20406;-53
2021/11/18 00:13:16;;;;;;;15.80;8.95;;;8.30;99.90;;;;;;5067844;28;20396;-53
2021/11/18 00:15:43;;;;;;;17.15;9.55;;;8.20;99.90;;;;;;5068573;28;20399;-53
2021/11/18 00:18:12;;;;;;;16.85;9.13;;;8.20;99.90;;;;;;5068417;28;20463;-54
2021/11/18 00:20:42;;;;;;;15.32;9.38;;;8.10;99.90;;;;;;5068433;28;20394;-53
2021/11/18 00:23:09;;;;;;;16.53;9.17;;;8.00;99.90;;;;;;5068569;28;20411;-54
2021/11/18 00:25:35;;;;;;;14.55;8.95;;;8.10;99.90;;;;;;5068844;28;20482;-53
2021/11/18 00:28:01;;;;;;;16.15;9.65;;;8.10;99.90;;;;;;5069764;28;20427;-53
2021/11/18 00:30:27;;;;;;;15.50;8.80;;;8.20;99.90;;;;;;5077464;28;20490;-53
2021/11/18 00:32:54;;;;;;;15.15;9.90;;;8.20;99.90;;;;;;5068570;28;20779;-53
2021/11/18 00:35:26;;;;;;;16.20;9.95;;;8.20;99.90;;;;;;5069177;28;20394;-53
2021/11/18 00:37:53;;;;;;;17.42;10.20;;;8.20;99.90;;;;;;5072406;28;20384;-53
2021/11/18 00:40:25;;;;;;;16.93;10.57;;;8.10;99.90;;;;;;5071390;28;20384;-53
2021/11/18 00:42:51;;;;;;;15.70;9.50;;;8.10;99.90;;;;;;5072308;28;20415;-53
2021/11/18 00:45:20;;;;;;;18.03;10.00;;;8.20;99.90;;;;;;5071698;28;20395;-53
2021/11/18 00:47:50;;;;;;;15.60;9.73;;;8.20;99.90;;;;;;5072369;28;20380;-53
2021/11/18 00:50:18;;;;;;;17.00;10.13;;;8.20;99.90;;;;;;5070877;28;20865;-53
2021/11/18 00:52:43;;;;;;;15.75;9.48;;;8.10;99.90;;;;;;5071984;28;20861;-53
2021/11/18 00:55:10;;;;;;;17.30;10.50;;;8.10;99.90;;;;;;5071897;28;20385;-54
2021/11/18 00:57:37;;;;;;;16.52;10.88;;;8.10;99.90;;;;;;5073869;28;20434;-53
2021/11/18 01:00:12;;;;;;;15.55;10.10;;;8.00;99.90;;;;;;5080308;28;20371;-53
2021/11/18 01:02:38;;;;;;;17.67;10.87;;;7.90;99.90;;;;;;5081456;28;20445;-53
2021/11/18 01:05:06;;;;;;;16.33;10.30;;;8.00;99.90;;;;;;5091470;28;20484;-53
2021/11/18 01:07:31;;;;;;;16.00;10.35;;;7.90;99.90;;;;;;5091272;28;20374;-52
2021/11/18 01:09:58;;;;;;;17.17;10.10;;;8.50;99.90;;;;;;5092194;28;20442;-53
2021/11/18 01:12:23;;;;;;;16.20;10.27;;;7.90;99.90;;;;;;5072593;28;20824;-53
2021/11/18 01:14:50;;;;;;;15.73;9.93;;;7.90;99.90;;;;;;5092077;28;20461;-53
2021/11/18 01:17:16;;;;;;;18.08;10.68;;;8.00;99.90;;;;;;5091113;28;20379;-54
2021/11/18 01:19:42;;;;;;;17.92;10.38;;;8.00;99.90;;;;;;5092206;28;20489;-53
2021/11/18 01:22:09;;;;;;;16.88;10.55;;;8.00;99.90;;;;;;5073582;28;20861;-53
2021/11/18 01:24:39;;;;;;;15.90;9.80;;;8.00;99.90;;;;;;5090958;28;20442;-53
2021/11/18 01:27:04;;;;;;;17.73;9.82;;;8.10;99.90;;;;;;5091793;28;20374;-53
2021/11/18 01:29:30;;;;;;;17.00;9.33;;;8.00;99.90;;;;;;5085367;28;20433;-53
2021/11/18 01:31:56;;;;;;;16.58;10.15;;;7.90;99.90;;;;;;5073446;28;20383;-53
2021/11/18 01:34:22;;;;;;;15.75;9.35;;;8.00;99.90;;;;;;5070804;28;20388;-53
2021/11/18 01:36:47;;;;;;;18.37;9.50;;;8.10;99.90;;;;;;5071018;28;20449;-53
2021/11/18 01:39:13;;;;;;;16.15;9.90;;;8.10;99.90;;;;;;5070879;28;20904;-54
2021/11/18 01:41:39;;;;;;;16.93;9.50;;;8.10;99.90;;;;;;5070494;28;20885;-53
2021/11/18 01:44:15;;;;;;;19.38;10.07;;;8.10;99.90;;;;;;5070772;28;20880;-53
2021/11/18 01:46:41;;;;;;;16.70;10.20;;;8.10;99.90;;;;;;5069805;28;20366;-54
2021/11/18 01:49:10;;;;;;;16.20;9.68;;;8.00;99.90;;;;;;5071225;28;20380;-53
2021/11/18 01:51:42;;;;;;;19.30;9.80;;;8.20;99.90;;;;;;5069946;28;20453;-53
2021/11/18 01:54:08;;;;;;;15.65;10.18;;;8.20;99.90;;;;;;5053219;28;20711;-54
2021/11/18 01:56:35;;;;;;;19.73;9.70;;;8.20;99.90;;;;;;5070370;28;20368;-54
2021/11/18 01:59:21;;;;;;;14.77;9.20;;;8.00;99.90;;;;;;5073547;28;20410;-54
2021/11/18 02:01:51;;;;;;;16.27;9.18;;;7.80;99.90;;;;;;5083369;28;20410;-54
2021/11/18 02:04:20;;;;;;;17.10;9.90;;;7.80;99.90;;;;;;5090138;28;20439;-55
2021/11/18 02:06:50;;;;;;;16.33;9.70;;;8.00;99.90;;;;;;5091065;28;20374;-54
2021/11/18 02:09:19;;;;;;;14.45;9.00;;;8.10;99.90;;;;;;5090424;28;20374;-55
2021/11/18 02:12:00;;;;;;;18.08;9.02;;;8.20;99.90;;;;;;5090304;28;20398;-54
2021/11/18 02:14:27;;;;;;;14.52;9.02;;;8.20;99.90;;;;;;5089873;28;20382;-54
2021/11/18 02:17:00;;;;;;;14.50;9.07;;;8.10;99.90;;;;;;5090576;28;20428;-54
2021/11/18 02:19:26;;;;;;;16.83;8.68;;;7.90;99.90;;;;;;5089961;28;20672;-54
2021/11/18 02:21:54;;;;;;;17.50;9.63;;;7.90;99.90;;;;;;5090296;28;20405;-54
2021/11/18 02:24:32;;;;;;;15.45;9.25;;;8.00;99.90;;;;;;5089939;28;20378;-55
2021/11/18 02:26:58;;;;;;;15.47;9.37;;;8.00;99.90;;;;;;5090615;28;20436;-54
2021/11/18 02:29:23;;;;;;;14.95;8.90;;;8.00;99.90;;;;;;5089805;28;20382;-55
2021/11/18 02:31:52;;;;;;;15.57;8.65;;;8.00;99.90;;;;;;5090404;28;20378;-54
2021/11/18 02:34:22;;;;;;;17.17;9.63;;;8.00;99.90;;;;;;5089947;28;20389;-56
2021/11/18 02:36:48;;;;;;;15.13;8.63;;;8.10;99.90;;;;;;5090433;28;20379;-54
2021/11/18 02:39:16;;;;;;;14.50;8.90;;;8.10;99.90;;;;;;5090162;28;20374;-54
2021/11/18 02:41:41;;;;;;;15.65;8.98;;;8.20;99.90;;;;;;5089821;28;20536;-54
2021/11/18 02:44:07;;;;;;;13.57;8.23;;;8.20;99.90;;;;;;5090270;28;20477;-54
2021/11/18 02:46:35;;;;;;;14.02;9.02;;;8.20;99.90;;;;;;5089453;28;20854;-54
2021/11/18 02:49:01;;;;;;;17.77;10.05;;;8.20;99.90;;;;;;5089831;28;20869;-54
2021/11/18 02:51:26;;;;;;;17.67;10.00;;;8.20;99.90;;;;;;5089431;28;20389;-54
2021/11/18 02:53:53;;;;;;;16.95;8.98;;;8.20;99.90;;;;;;5090261;28;20382;-54
2021/11/18 02:56:19;;;;;;;15.93;9.32;;;8.10;99.90;;;;;;5089388;28;20381;-55
2021/11/18 02:58:46;;;;;;;14.55;9.27;;;8.00;99.90;;;;;;5088975;28;20868;-54
2021/11/18 03:01:23;;;;;;;15.00;9.52;;;8.10;99.90;;;;;;5089684;28;20409;-54
2021/11/18 03:03:49;;;;;;;16.83;9.32;;;8.10;99.90;;;;;;5064009;28;20396;-54
2021/11/18 03:06:15;;;;;;;15.50;8.83;;;8.10;99.90;;;;;;5035026;28;20376;-54
2021/11/18 03:08:43;;;;;;;14.88;9.07;;;8.10;99.90;;;;;;5069072;28;20391;-54
2021/11/18 03:11:10;;;;;;;15.77;9.30;;;8.10;99.90;;;;;;5069366;28;20416;-54
2021/11/18 03:13:36;;;;;;;14.90;9.32;;;8.10;99.90;;;;;;5050929;28;20390;-55
2021/11/18 03:16:04;;;;;;;14.02;8.95;;;8.10;99.90;;;;;;5069695;28;20376;-54
2021/11/18 03:18:30;;;;;;;14.70;9.32;;;8.10;99.90;;;;;;5050613;28;20426;-54
2021/11/18 03:20:59;;;;;;;18.98;9.30;;;8.10;99.90;;;;;;5069217;28;20450;-54
2021/11/18 03:23:25;;;;;;;18.48;9.30;;;8.10;99.90;;;;;;5068691;28;20391;-55
2021/11/18 03:25:52;;;;;;;18.35;9.52;;;8.10;99.90;;;;;;5069318;28;20383;-54
2021/11/18 03:28:19;;;;;;;17.35;9.77;;;8.00;99.90;;;;;;5069185;28;20376;-55
2021/11/18 03:30:48;;;;;;;14.85;9.50;;;7.90;99.90;;;;;;5068821;28;20479;-55
2021/11/18 03:33:21;;;;;;;17.90;9.60;;;8.00;99.90;;;;;;5069217;28;20876;-54
2021/11/18 03:35:48;;;;;;;18.53;10.20;;;7.90;99.90;;;;;;5068965;28;20459;-54
2021/11/18 03:38:15;;;;;;;16.33;9.70;;;7.80;99.90;;;;;;5050978;28;20384;-55
2021/11/18 03:40:44;;;;;;;15.50;9.23;;;7.80;99.90;;;;;;5068159;28;20820;-54
2021/11/18 03:43:13;;;;;;;18.20;9.90;;;7.80;99.90;;;;;;5072676;28;20406;-55
2021/11/18 03:45:39;;;;;;;17.40;10.13;;;7.80;99.90;;;;;;5088292;28;20386;-54
2021/11/18 03:48:07;;;;;;;17.13;9.68;;;7.70;99.90;;;;;;5089323;28;20378;-51
2021/11/18 03:50:33;;;;;;;16.67;9.83;;;7.80;99.90;;;;;;5088233;28;20406;-53
2021/11/18 03:52:59;;;;;;;16.90;9.15;;;7.80;99.90;;;;;;5089174;28;20411;-54
2021/11/18 03:55:25;;;;;;;15.73;9.60;;;7.80;99.90;;;;;;5087857;28;20385;-53
2021/11/18 03:57:53;;;;;;;16.35;9.40;;;7.80;99.90;;;;;;5070817;28;20438;-52
2021/11/18 04:00:24;;;;;;;17.05;8.80;;;7.90;99.90;;;;;;5088870;28;20409;-51
2021/11/18 04:02:50;;;;;;;16.73;9.13;;;8.00;99.90;;;;;;5088891;28;20401;-54
2021/11/18 04:05:16;;;;;;;14.70;8.52;;;8.00;99.90;;;;;;5069442;28;20728;-54
2021/11/18 04:07:43;;;;;;;16.83;9.53;;;8.10;99.90;;;;;;5067857;28;20379;-54
2021/11/18 04:10:12;;;;;;;17.02;9.60;;;8.20;99.90;;;;;;5068327;28;20391;-54
2021/11/18 04:12:39;;;;;;;15.30;9.20;;;8.20;99.90;;;;;;5067956;28;20458;-54
2021/11/18 04:15:07;;;;;;;16.42;9.57;;;8.30;99.90;;;;;;5068475;28;20374;-54
2021/11/18 04:17:35;;;;;;;18.00;10.18;;;8.30;99.90;;;;;;5066871;28;20411;-54
2021/11/18 04:20:01;;;;;;;17.73;10.20;;;8.30;99.90;;;;;;5068258;28;20380;-54
2021/11/18 04:22:27;;;;;;;18.10;10.23;;;8.20;99.90;;;;;;5076918;28;20410;-55
2021/11/18 04:24:52;;;;;;;17.05;9.93;;;8.20;99.90;;;;;;5088530;28;20464;-55
2021/11/18 04:27:18;;;;;;;17.65;10.30;;;8.30;99.90;;;;;;5088860;28;20867;-54
2021/11/18 04:29:44;;;;;;;19.90;10.60;;;8.30;99.90;;;;;;5080947;28;20383;-54
2021/11/18 04:32:18;;;;;;;17.73;9.90;;;8.20;99.90;;;;;;5068467;28;20719;-54
2021/11/18 04:34:44;;;;;;;20.55;10.50;;;8.10;99.90;;;;;;5067815;28;20524;-54
2021/11/18 04:37:10;;;;;;;18.23;10.73;;;8.20;99.90;;;;;;5068215;28;20379;-54
2021/11/18 04:39:37;;;;;;;18.17;10.40;;;8.20;99.90;;;;;;5067601;28;20794;-54
2021/11/18 04:42:04;;;;;;;19.75;9.48;;;8.20;99.90;;;;;;5068414;28;20430;-55
2021/11/18 04:44:29;;;;;;;18.98;10.95;;;8.20;99.90;;;;;;5067482;28;20429;-54
2021/11/18 04:46:55;;;;;;;20.95;10.65;;;8.20;99.90;;;;;;5067899;28;20409;-54
2021/11/18 04:49:21;;;;;;;17.93;10.27;;;8.20;99.90;;;;;;5068288;28;20380;-54
2021/11/18 04:51:48;;;;;;;18.85;10.50;;;8.20;99.90;;;;;;5049416;28;20785;-54
2021/11/18 04:54:15;;;;;;;20.15;11.27;;;7.70;99.90;;;;;;5068231;28;20388;-54
2021/11/18 04:56:41;;;;;;;20.02;10.70;;;8.00;99.90;;;;;;5074617;28;20590;-54
2021/11/18 04:59:07;;;;;;;20.20;10.60;;;7.90;99.90;;;;;;5084878;28;20469;-54
2021/11/18 05:01:36;;;;;;;21.95;11.90;;;7.80;99.90;;;;;;5087467;28;20409;-54
2021/11/18 05:04:04;;;;;;;26.45;11.90;;;7.70;99.90;;;;;;5088446;28;20387;-54
2021/11/18 05:06:29;;;;;;;20.00;10.70;;;7.70;99.90;;;;;;5087171;28;20881;-54
2021/11/18 05:08:55;;;;;;;22.00;11.05;;;7.80;99.90;;;;;;5088262;28;20374;-54
2021/11/18 05:11:21;;;;;;;21.43;10.67;;;7.90;99.90;;;;;;5087464;28;20429;-54
2021/11/18 05:13:47;;;;;;;21.48;11.10;;;7.90;99.90;;;;;;5087468;28;20419;-54
2021/11/18 05:16:15;;;;;;;21.35;11.43;;;8.00;99.90;;;;;;5069962;28;20875;-54
2021/11/18 05:18:41;;;;;;;24.30;11.83;;;7.90;99.90;;;;;;5087464;28;20393;-54
2021/11/18 05:21:09;;;;;;;23.55;11.70;;;7.90;99.90;;;;;;5088636;28;20394;-54
2021/11/18 05:23:36;;;;;;;19.13;10.73;;;8.00;99.90;;;;;;5087318;28;20536;-55
2021/11/18 05:26:03;;;;;;;22.95;10.57;;;8.10;99.90;;;;;;5084277;28;20485;-54
2021/11/18 05:28:29;;;;;;;22.30;11.10;;;8.20;99.90;;;;;;5090807;28;20398;-55
2021/11/18 05:30:55;;;;;;;21.00;11.38;;;8.30;99.90;;;;;;5091167;28;21091;-54
2021/11/18 05:33:23;;;;;;;20.60;11.00;;;8.20;99.90;;;;;;5071676;28;20401;-54
2021/11/18 05:35:49;;;;;;;22.40;11.05;;;8.30;99.90;;;;;;5071050;28;20407;-54
2021/11/18 05:38:16;;;;;;;21.55;11.80;;;8.20;99.90;;;;;;5071107;28;20975;-54
2021/11/18 05:40:44;;;;;;;24.55;11.70;;;8.10;99.90;;;;;;5069776;28;20387;-54
2021/11/18 05:43:10;;;;;;;21.20;10.65;;;8.00;99.90;;;;;;5071081;28;20423;-54
2021/11/18 05:45:37;;;;;;;20.77;10.63;;;8.00;99.90;;;;;;5073979;28;20374;-54
2021/11/18 05:48:05;;;;;;;22.88;11.45;;;8.00;99.90;;;;;;5090751;28;20374;-54
2021/11/18 05:50:32;;;;;;;24.83;11.40;;;8.10;99.90;;;;;;5070561;28;20833;-55
2021/11/18 05:52:58;;;;;;;21.75;11.25;;;8.20;99.90;;;;;;5070828;28;20384;-55
2021/11/18 05:55:28;;;;;;;22.50;10.57;;;8.20;99.90;;;;;;5070544;28;20404;-55
2021/11/18 05:57:53;;;;;;;21.30;11.15;;;8.30;99.90;;;;;;5070172;28;20425;-54
2021/11/18 06:00:23;;;;;;;21.52;11.15;;;8.20;99.90;;;;;;5070571;28;20402;-55
2021/11/18 06:02:50;;;;;;;23.55;11.50;;;8.20;99.90;;;;;;5051800;28;20665;-55
2021/11/18 06:05:16;;;;;;;22.00;11.83;;;8.10;99.90;;;;;;5076990;28;20489;-54
2021/11/18 06:07:43;;;;;;;22.55;11.90;;;8.10;99.90;;;;;;5073657;28;20407;-54
2021/11/18 06:10:12;;;;;;;23.77;11.60;;;8.10;99.90;;;;;;5076967;28;20418;-54
2021/11/18 06:12:38;;;;;;;22.67;11.02;;;8.10;99.90;;;;;;5080159;28;20748;-54
2021/11/18 06:15:07;;;;;;;21.90;11.07;;;8.20;99.90;;;;;;5078448;28;20848;-54
2021/11/18 06:17:33;;;;;;;21.20;11.10;;;8.20;99.90;;;;;;5083290;28;20413;-55
2021/11/18 06:19:59;;;;;;;22.03;11.30;;;8.20;99.90;;;;;;5070472;28;20398;-54
2021/11/18 06:22:27;;;;;;;24.05;11.40;;;8.30;99.90;;;;;;5072802;28;20434;-54
2021/11/18 06:24:54;;;;;;;23.87;11.50;;;8.30;99.90;;;;;;5085251;28;20411;-55
2021/11/18 06:27:20;;;;;;;21.05;11.45;;;8.20;99.90;;;;;;5085383;28;20879;-54
2021/11/18 06:29:46;;;;;;;20.88;11.13;;;8.20;99.90;;;;;;5086839;28;20427;-54
2021/11/18 06:32:12;;;;;;;25.07;11.30;;;8.30;99.90;;;;;;5090044;28;20382;-54
2021/11/18 06:34:38;;;;;;;23.52;11.45;;;8.30;99.90;;;;;;5085585;28;20894;-54
2021/11/18 06:37:04;;;;;;;24.05;11.65;;;8.50;99.90;;;;;;5086724;28;20399;-54
2021/11/18 06:39:32;;;;;;;25.80;11.10;;;8.30;99.90;;;;;;5087271;28;20390;-56
2021/11/18 06:41:58;;;;;;;21.50;11.07;;;9.10;99.90;;;;;;5085729;28;20414;-54
2021/11/18 06:44:24;;;;;;;21.63;11.40;;;8.30;99.90;;;;;;5083017;28;20446;-55
2021/11/18 06:46:50;;;;;;;22.90;11.70;;;8.40;99.90;;;;;;5076747;28;20439;-55
2021/11/18 06:49:15;;;;;;;20.88;11.10;;;8.30;99.90;;;;;;5070017;28;20498;-55
2021/11/18 06:51:43;;;;;;;22.03;11.17;;;8.30;99.90;;;;;;5068454;28;20447;-55
2021/11/18 06:54:11;;;;;;;23.05;11.98;;;8.30;99.90;;;;;;5069643;28;20399;-54
2021/11/18 06:56:37;;;;;;;26.25;11.77;;;8.30;99.90;;;;;;5069200;28;20412;-55
2021/11/18 06:59:04;;;;;;;24.50;11.85;;;8.30;99.90;;;;;;5069475;28;20422;-55
2021/11/18 07:01:30;;;;;;;24.33;11.43;;;8.20;99.90;;;;;;5069000;28;20935;-54
2021/11/18 07:03:55;;;;;;;28.43;12.50;;;8.30;99.90;;;;;;5072833;28;20493;-55
2021/11/18 07:06:23;;;;;;;23.90;11.95;;;8.20;99.90;;;;;;5081824;28;20756;-54
2021/11/18 07:08:49;;;;;;;27.17;12.30;;;8.40;99.90;;;;;;5082193;28;20450;-54
2021/11/18 07:11:17;;;;;;;24.75;12.00;;;8.60;99.90;;;;;;5061760;28;20448;-54
2021/11/18 07:13:43;;;;;;;24.90;12.50;;;8.50;99.90;;;;;;5070560;28;20438;-54
2021/11/18 07:16:12;;;;;;;22.35;11.85;;;8.60;99.90;;;;;;5068956;28;20798;-55
2021/11/18 07:18:38;;;;;;;23.27;11.90;;;8.70;99.90;;;;;;5081944;28;20385;-55
2021/11/18 07:21:04;;;;;;;21.00;11.93;;;8.60;99.90;;;;;;5060877;28;20407;-55
2021/11/18 07:23:31;;;;;;;24.65;11.90;;;8.60;99.90;;;;;;5073212;28;20759;-54
2021/11/18 07:25:59;;;;;;;21.88;11.27;;;8.60;99.90;;;;;;5077354;28;20403;-55
2021/11/18 07:28:28;;;;;;;21.27;11.82;;;8.60;99.90;;;;;;5074982;28;20410;-54
2021/11/18 07:30:54;;;;;;;23.48;10.70;;;8.70;99.90;;;;;;5086621;28;20974;-54
2021/11/18 07:33:22;;;;;;;25.30;11.68;;;8.70;99.90;;;;;;5077211;28;20383;-55
2021/11/18 07:35:50;;;;;;;21.50;10.80;;;8.80;99.90;;;;;;5070529;28;20917;-55
2021/11/18 07:38:17;;;;;;;20.08;10.93;;;8.80;99.90;;;;;;5073939;28;20473;-55
2021/11/18 07:40:44;;;;;;;19.83;11.18;;;8.80;99.90;;;;;;5084899;28;20767;-54
2021/11/18 07:43:13;;;;;;;20.67;11.70;;;8.80;99.90;;;;;;5070045;28;20415;-54
2021/11/18 07:45:38;;;;;;;24.27;12.73;;;8.90;99.90;;;;;;5078644;28;20403;-55
2021/11/18 07:48:04;;;;;;;24.83;12.13;;;8.90;99.90;;;;;;5070189;28;20391;-55
2021/11/18 07:50:30;;;;;;;28.38;13.63;;;8.90;99.90;;;;;;5077520;28;20773;-55
2021/11/18 07:52:59;;;;;;;25.17;12.50;;;8.90;99.90;;;;;;5068837;28;20708;-54
2021/11/18 07:55:26;;;;;;;26.83;13.40;;;8.80;99.90;;;;;;5051073;28;20486;-55
2021/11/18 07:57:51;;;;;;;25.52;13.57;;;8.70;99.90;;;;;;5076253;28;20463;-55
2021/11/18 08:00:20;;;;;;;28.90;14.70;;;8.70;99.90;;;;;;5083583;28;20962;-54
2021/11/18 08:02:46;;;;;;;25.15;13.38;;;8.70;99.90;;;;;;5079985;28;20413;-55
2021/11/18 08:05:15;;;;;;;25.10;12.65;;;8.80;99.90;;;;;;5079188;28;20394;-55
2021/11/18 08:07:41;;;;;;;26.27;13.25;;;8.80;99.90;;;;;;5079160;28;20384;-55
2021/11/18 08:10:08;;;;;;;24.05;12.40;;;8.80;99.90;;;;;;5084578;28;20401;-55
2021/11/18 08:12:36;;;;;;;24.40;13.20;;;8.80;99.90;;;;;;5081153;28;20414;-56
2021/11/18 08:15:04;;;;;;;24.55;13.10;;;8.80;99.90;;;;;;5082387;28;20389;-55
2021/11/18 08:17:30;;;;;;;25.05;13.10;;;8.90;99.90;;;;;;5085689;28;20477;-54
2021/11/18 08:19:55;;;;;;;22.13;12.23;;;9.00;99.90;;;;;;5060899;28;20471;-54
2021/11/18 08:22:21;;;;;;;22.33;12.18;;;9.00;99.90;;;;;;5083549;28;20787;-54
2021/11/18 08:24:47;;;;;;;26.30;12.75;;;9.00;99.90;;;;;;5079646;28;20390;-55
2021/11/18 08:27:13;;;;;;;24.33;12.70;;;9.00;99.90;;;;;;5083212;28;20405;-55
2021/11/18 08:29:39;;;;;;;23.08;12.85;;;9.10;99.90;;;;;;5082494;28;20463;-55
2021/11/18 08:32:07;;;;;;;24.30;12.80;;;9.10;99.90;;;;;;5083168;28;20768;-54
2021/11/18 08:34:34;;;;;;;22.35;11.93;;;9.10;99.90;;;;;;5082230;28;20419;-54
2021/11/18 08:37:00;;;;;;;24.52;11.80;;;9.10;99.90;;;;;;5080265;28;21028;-54
2021/11/18 08:39:26;;;;;;;19.23;10.77;;;9.20;99.90;;;;;;5078721;28;20489;-54
2021/11/18 08:41:58;;;;;;;19.00;10.32;;;9.20;99.90;;;;;;5082659;28;20411;-54
2021/11/18 08:44:28;;;;;;;21.10;11.32;;;9.20;99.90;;;;;;5082033;28;20464;-54
2021/11/18 08:46:55;;;;;;;18.37;10.13;;;9.30;99.90;;;;;;5083895;28;20389;-54
2021/11/18 08:49:22;;;;;;;18.48;10.10;;;9.20;99.90;;;;;;5084749;28;20386;-54
2021/11/18 08:51:49;;;;;;;21.85;10.88;;;9.30;99.90;;;;;;5075498;28;20520;-53
2021/11/18 08:54:22;;;;;;;19.10;10.30;;;9.20;99.90;;;;;;5076158;28;20375;-54
2021/11/18 08:56:53;;;;;;;21.27;11.02;;;9.20;99.90;;;;;;5077764;28;20398;-54
2021/11/18 08:59:21;;;;;;;20.23;10.00;;;9.10;99.90;;;;;;5067040;28;20782;-54
2021/11/18 09:01:54;;;;;;;16.63;9.77;;;9.00;99.90;;;;;;5078765;28;20414;-54
2021/11/18 09:04:23;;;;;;;19.70;10.70;;;9.00;99.90;;;;;;5075120;28;20414;-54
2021/11/18 09:06:50;;;;;;;21.70;11.45;;;9.20;99.90;;;;;;5078327;28;20509;-54
2021/11/18 09:09:18;;;;;;;20.52;9.40;;;9.10;99.90;;;;;;5070250;28;20908;-54
2021/11/18 09:11:45;;;;;;;18.63;10.00;;;9.10;99.90;;;;;;5064078;28;20466;-56
2021/11/18 09:14:11;;;;;;;19.38;9.68;;;9.20;99.90;;;;;;5043369;28;20405;-54
2021/11/18 09:16:39;;;;;;;19.52;9.77;;;9.20;99.90;;;;;;5062992;28;20391;-54
2021/11/18 09:19:08;;;;;;;18.48;9.10;;;9.30;99.90;;;;;;5060086;28;20398;-54
2021/11/18 09:21:34;;;;;;;18.23;9.20;;;9.00;99.90;;;;;;5046577;28;20444;-55
2021/11/18 09:24:04;;;;;;;16.48;9.15;;;9.00;99.90;;;;;;5063482;28;20385;-54
2021/11/18 09:26:33;;;;;;;18.50;10.40;;;9.00;99.90;;;;;;5054963;28;20413;-54
2021/11/18 09:28:59;;;;;;;19.52;10.20;;;9.00;99.90;;;;;;5066217;28;20468;-54
2021/11/18 09:31:26;;;;;;;17.08;9.52;;;9.10;99.90;;;;;;5060770;28;20424;-55
2021/11/18 09:33:53;;;;;;;17.80;10.35;;;9.10;99.90;;;;;;5052490;28;20416;-55
2021/11/18 09:36:21;;;;;;;19.10;9.13;;;9.20;99.90;;;;;;5048180;28;20432;-55
2021/11/18 09:38:49;;;;;;;16.38;9.10;;;9.30;99.90;;;;;;5068458;28;20593;-56
2021/11/18 09:41:26;;;;;;;18.73;9.45;;;9.30;99.90;;;;;;5064163;28;20421;-55
2021/11/18 09:44:36;;;;;;;16.83;9.23;;;9.40;99.90;;;;;;5042536;28;20407;-54
2021/11/18 09:47:14;;;;;;;18.95;9.10;;;9.40;99.90;;;;;;5053630;28;20396;-55
2021/11/18 09:50:01;;;;;;;17.47;9.27;;;9.50;99.90;;;;;;5065112;28;20392;-55
2021/11/18 09:52:54;;;;;;;17.27;9.30;;;9.60;99.90;;;;;;5049365;28;20400;-55
2021/11/18 09:55:49;;;;;;;16.35;8.57;;;9.60;99.90;;;;;;5063762;28;20728;-54
2021/11/18 09:58:41;;;;;;;16.88;8.98;;;9.80;99.90;;;;;;5065121;28;20828;-55
2021/11/18 10:01:56;;;;;;;17.13;9.35;;;10.10;99.90;;;;;;5062825;28;20397;-55
2021/11/18 10:04:36;;;;;;;16.48;9.20;;;10.10;99.90;;;;;;5064986;28;20419;-54
2021/11/18 10:07:29;;;;;;;17.00;8.80;;;10.20;99.90;;;;;;5063962;28;20857;-55
2021/11/18 10:10:28;;;;;;;18.70;9.88;;;10.30;99.90;;;;;;5061328;28;20869;-55
2021/11/18 10:12:57;;;;;;;18.08;9.50;;;10.40;99.90;;;;;;5077484;28;20783;-54
2021/11/18 10:15:28;;;;;;;19.90;10.80;;;10.30;99.90;;;;;;5083268;28;20410;-55
2021/11/18 10:18:23;;;;;;;20.60;9.95;;;10.30;99.90;;;;;;5074368;28;20551;-55
2021/11/18 10:20:58;;;;;;;21.38;11.13;;;10.20;99.90;;;;;;5085115;28;20401;-56
2021/11/18 10:23:24;;;;;;;16.67;9.80;;;10.20;99.90;;;;;;5085389;28;20414;-54
2021/11/18 10:26:07;;;;;;;20.40;10.20;;;10.20;99.90;;;;;;5083743;28;20481;-55
2021/11/18 10:28:44;;;;;;;18.90;10.50;;;10.40;99.90;;;;;;5084664;28;20402;-55
2021/11/18 10:31:22;;;;;;;18.08;9.80;;;10.60;99.90;;;;;;5083475;28;20394;-54
2021/11/18 10:34:26;;;;;;;18.77;9.90;;;10.50;99.90;;;;;;5063955;28;20923;-56
2021/11/18 10:37:13;;;;;;;16.92;9.63;;;10.70;99.90;;;;;;5081160;28;20447;-55
2021/11/18 10:39:53;;;;;;;21.40;11.05;;;10.70;99.90;;;;;;5073860;28;20752;-54
2021/11/18 10:42:24;;;;;;;19.23;10.25;;;10.70;99.90;;;;;;5063283;28;20416;-54
2021/11/18 10:44:58;;;;;;;20.05;9.95;;;11.10;99.90;;;;;;5085750;28;20510;-57
2021/11/18 10:47:50;;;;;;;19.70;9.80;;;11.20;99.90;;;;;;5082669;28;20413;-55
2021/11/18 10:50:39;;;;;;;18.90;10.80;;;11.40;99.90;;;;;;5086403;28;20401;-55
2021/11/18 10:53:15;;;;;;;19.00;9.38;;;11.60;99.90;;;;;;5082561;28;20401;-55
2021/11/18 10:56:01;;;;;;;20.20;10.05;;;11.70;99.90;;;;;;5080297;28;20485;-55
2021/11/18 10:58:26;;;;;;;20.83;10.80;;;11.80;99.90;;;;;;5084023;28;20498;-55
2021/11/18 11:00:56;;;;;;;17.90;9.82;;;12.00;99.90;;;;;;5084396;28;20495;-56
2021/11/18 11:03:34;;;;;;;16.40;9.57;;;11.90;99.90;;;;;;5084902;28;20417;-52
2021/11/18 11:06:22;;;;;;;15.57;9.00;;;12.20;99.90;;;;;;5085000;28;20445;-52
2021/11/18 11:09:08;;;;;;;18.27;10.10;;;11.90;99.90;;;;;;5081443;28;20411;-53
2021/11/18 11:12:23;;;;;;;17.45;9.57;;;11.90;99.90;;;;;;5083075;28;20474;-52
2021/11/18 11:15:05;;;;;;;18.93;10.13;;;12.20;99.90;;;;;;5084931;28;20445;-54
2021/11/18 11:18:15;;;;;;;17.60;10.05;;;12.10;99.90;;;;;;5080213;28;20752;-55
2021/11/18 11:20:59;;;;;;;15.50;9.07;;;12.00;99.90;;;;;;5082122;28;20394;-53
2021/11/18 11:24:01;;;;;;;16.90;9.68;;;12.30;99.90;;;;;;5083412;28;20414;-53
2021/11/18 11:26:46;;;;;;;17.95;9.48;;;12.20;99.90;;;;;;5079171;28;20391;-55
2021/11/18 11:29:30;;;;;;;16.60;9.53;;;11.50;99.90;;;;;;5065518;28;20451;-55
2021/11/18 11:32:17;;;;;;;16.30;9.10;;;11.10;99.90;;;;;;5080776;28;20410;-56
2021/11/18 11:34:51;;;;;;;18.67;9.50;;;11.00;99.90;;;;;;5084714;28;20383;-55
2021/11/18 11:37:49;;;;;;;17.38;9.55;;;11.20;99.90;;;;;;5083914;28;20385;-56
2021/11/18 11:40:41;;;;;;;17.15;9.18;;;11.10;99.90;;;;;;5085523;28;20489;-55
2021/11/18 11:43:22;;;;;;;15.90;9.30;;;11.00;99.90;;;;;;5082155;28;20447;-56
2021/11/18 11:46:35;;;;;;;15.32;9.00;;;10.90;99.90;;;;;;5082863;28;20463;-56
2021/11/18 11:49:29;;;;;;;15.27;8.32;;;11.00;99.90;;;;;;5067254;28;20502;-56
2021/11/18 11:52:13;;;;;;;15.82;8.60;;;11.10;99.90;;;;;;5079619;28;20413;-55
2021/11/18 11:55:29;;;;;;;17.58;9.38;;;10.90;99.90;;;;;;5084745;28;20382;-56
2021/11/18 11:58:02;;;;;;;16.33;9.20;;;11.00;99.90;;;;;;5004007;28;20499;-55
2021/11/18 12:00:43;;;;;;;15.18;8.40;;;11.00;99.90;;;;;;4978319;28;20454;-54
2021/11/18 12:03:12;;;;;;;15.02;8.60;;;11.30;99.90;;;;;;5043434;28;20414;-53
2021/11/18 12:05:57;;;;;;;14.43;8.33;;;11.40;99.90;;;;;;5077542;28;20458;-54
2021/11/18 12:08:34;;;;;;;14.63;8.57;;;11.70;99.90;;;;;;5068401;28;20407;-54
2021/11/18 12:11:31;;;;;;;16.48;9.15;;;11.60;99.90;;;;;;5084784;28;20807;-54
2021/11/18 12:14:18;;;;;;;15.30;8.90;;;11.70;99.90;;;;;;5075643;28;20410;-54
2021/11/18 12:17:17;;;;;;;17.17;9.93;;;11.80;99.90;;;;;;5072406;28;20434;-54
2021/11/18 12:19:48;;;;;;;18.48;10.23;;;11.90;99.90;;;;;;5062836;28;20411;-54
2021/11/18 12:22:38;;;;;;;17.55;10.30;;;11.90;99.90;;;;;;5067305;28;21058;-54
2021/11/18 12:25:23;;;;;;;26.23;13.70;;;11.70;99.90;;;;;;5067228;28;20395;-54
2021/11/18 12:28:10;;;;;;;17.40;9.80;;;11.70;99.90;;;;;;5068305;28;20438;-54
2021/11/18 12:30:47;;;;;;;20.75;11.23;;;11.80;99.90;;;;;;5070254;28;20434;-54
2021/11/18 12:33:19;;;;;;;17.20;9.25;;;11.80;99.90;;;;;;5072183;28;20419;-54
2021/11/18 12:35:56;;;;;;;18.30;9.73;;;11.60;99.90;;;;;;5074955;28;20502;-54
2021/11/18 12:38:36;;;;;;;29.23;12.63;;;11.20;99.90;;;;;;5073256;28;20525;-54
2021/11/18 12:41:08;;;;;;;27.40;13.70;;;11.20;99.90;;;;;;5074506;28;20426;-54
2021/11/18 12:44:06;;;;;;;21.38;10.73;;;11.20;99.90;;;;;;5073527;28;20395;-54
2021/11/18 12:47:02;;;;;;;17.67;10.03;;;11.30;99.90;;;;;;5040510;28;20391;-53
2021/11/18 12:49:55;;;;;;;14.40;7.80;;;11.30;99.90;;;;;;5072394;28;20409;-53
2021/11/18 12:52:31;;;;;;;22.50;11.30;;;11.20;99.90;;;;;;5071860;28;20380;-55
2021/11/18 12:55:12;;;;;;;20.00;11.70;;;11.00;99.90;;;;;;5071703;28;20383;-55
2021/11/18 12:57:41;;;;;;;16.90;9.20;;;11.20;99.90;;;;;;5075753;28;20884;-54
2021/11/18 13:00:10;;;;;;;15.43;8.23;;;11.00;99.90;;;;;;5070928;28;20382;-53